createdAt,value
2018-12-20T00:01:13.715Z,98251.20
2018-12-20T00:03:42.249Z,98256.45
2018-12-20T00:06:11.229Z,98255.66
2018-12-20T00:08:39.554Z,98254.14
2018-12-20T00:11:09.739Z,98256.00
2018-12-20T00:13:38.704Z,98261.08
2018-12-20T00:16:07.835Z,98260.22
2018-12-20T00:18:36.774Z,98262.97
2018-12-20T00:21:05.969Z,98256.34
2018-12-20T00:23:34.649Z,98251.55
2018-12-20T00:26:03.914Z,98253.66
2018-12-20T00:28:32.217Z,98250.09
2018-12-20T00:31:00.856Z,98252.30
2018-12-20T00:33:29.267Z,98253.23
2018-12-20T00:35:58.211Z,98253.27
2018-12-20T00:38:26.804Z,98251.79
2018-12-20T00:40:55.485Z,98253.72
2018-12-20T00:43:23.838Z,98254.55
2018-12-20T00:45:53.580Z,98258.18
2018-12-20T00:48:22.149Z,98260.22
2018-12-20T00:50:50.536Z,98260.34
2018-12-20T00:53:19.539Z,98264.14
2018-12-20T00:55:48.199Z,98268.98
2018-12-20T00:58:16.917Z,98266.31
2018-12-20T01:00:45.407Z,98267.09
2018-12-20T01:03:14.187Z,98271.21
2018-12-20T01:05:42.826Z,98270.86
2018-12-20T01:08:11.330Z,98266.44
2018-12-20T01:10:39.607Z,98265.70
2018-12-20T01:13:07.979Z,98272.83
2018-12-20T01:15:37.087Z,98278.27
2018-12-20T01:18:05.440Z,98283.49
2018-12-20T01:20:34.423Z,98282.50
2018-12-20T01:23:03.084Z,98285.77
2018-12-20T01:25:31.874Z,98284.48
2018-12-20T01:28:00.510Z,98290.15
2018-12-20T01:30:28.992Z,98300.36
2018-12-20T01:32:57.381Z,98309.24
2018-12-20T01:35:25.750Z,98315.75
2018-12-20T01:37:54.458Z,98306.42
2018-12-20T01:40:22.911Z,98304.41
2018-12-20T01:42:52.736Z,98303.04
2018-12-20T01:45:22.307Z,98306.48
2018-12-20T01:47:50.727Z,98292.00
2018-12-20T01:50:18.984Z,98297.59
2018-12-20T01:52:47.320Z,98303.22
2018-12-20T01:57:54.921Z,98300.87
2018-12-20T02:00:23.778Z,98306.55
2018-12-20T02:02:52.158Z,98309.64
2018-12-20T02:05:20.493Z,98304.92
2018-12-20T02:07:49.041Z,98311.38
2018-12-20T02:10:17.402Z,98311.81
2018-12-20T02:12:46.005Z,98313.54
2018-12-20T02:15:14.700Z,98318.52
2018-12-20T02:17:43.562Z,98316.48
2018-12-20T02:20:12.302Z,98315.36
2018-12-20T02:22:40.558Z,98315.75
2018-12-20T02:25:08.851Z,98312.81
2018-12-20T02:27:37.315Z,98316.31
2018-12-20T02:30:07.874Z,98313.44
2018-12-20T02:32:36.409Z,98313.41
2018-12-20T02:35:05.657Z,98317.85
2018-12-20T02:37:34.092Z,98313.70
2018-12-20T02:40:02.497Z,98323.95
2018-12-20T02:42:31.049Z,98319.13
2018-12-20T02:45:10.512Z,98320.62
2018-12-20T02:47:32.186Z,98317.76
2018-12-20T02:50:00.574Z,98316.16
2018-12-20T02:52:30.204Z,98317.14
2018-12-20T02:54:58.857Z,98314.20
2018-12-20T02:57:27.887Z,98313.25
2018-12-20T02:59:56.401Z,98315.36
2018-12-20T03:02:25.043Z,98312.46
2018-12-20T03:04:53.957Z,98315.69
2018-12-20T03:07:22.719Z,98317.34
2018-12-20T03:09:52.093Z,98317.57
2018-12-20T03:12:21.158Z,98314.57
2018-12-20T03:14:49.795Z,98320.89
2018-12-20T03:17:18.655Z,98322.11
2018-12-20T03:19:47.117Z,98314.22
2018-12-20T03:22:15.717Z,98306.84
2018-12-20T03:24:44.365Z,98303.27
2018-12-20T03:27:13.493Z,98304.61
2018-12-20T03:29:42.494Z,98301.70
2018-12-20T03:32:11.980Z,98301.45
2018-12-20T03:34:40.464Z,98299.30
2018-12-20T03:37:09.179Z,98298.95
2018-12-20T03:39:38.365Z,98292.05
2018-12-20T03:42:07.066Z,98290.02
2018-12-20T03:44:35.902Z,98295.55
2018-12-20T03:47:04.325Z,98294.43
2018-12-20T03:49:33.078Z,98301.64
2018-12-20T03:52:01.657Z,98303.44
2018-12-20T03:54:30.243Z,98300.36
2018-12-20T03:56:58.671Z,98304.40
2018-12-20T03:59:27.445Z,98307.05
2018-12-20T04:01:55.997Z,98308.09
2018-12-20T04:04:24.327Z,98307.80
2018-12-20T04:06:52.620Z,98308.53
2018-12-20T04:09:21.325Z,98306.28
2018-12-20T04:11:50.198Z,98304.83
2018-12-20T04:14:18.486Z,98299.83
2018-12-20T04:16:46.718Z,98304.09
2018-12-20T04:19:15.078Z,98310.98
2018-12-20T04:21:43.684Z,98315.64
2018-12-20T04:24:12.313Z,98313.02
2018-12-20T04:26:40.943Z,98316.19
2018-12-20T04:29:12.284Z,98320.55
2018-12-20T04:31:40.916Z,98330.61
2018-12-20T04:34:09.277Z,98328.42
2018-12-20T04:36:37.938Z,98323.55
2018-12-20T04:39:07.779Z,98324.43
2018-12-20T04:41:37.131Z,98325.80
2018-12-20T04:44:05.486Z,98337.81
2018-12-20T04:46:34.461Z,98340.42
2018-12-20T04:49:03.174Z,98346.20
2018-12-20T04:51:31.939Z,98344.86
2018-12-20T04:54:00.535Z,98338.92
2018-12-20T04:56:28.939Z,98336.76
2018-12-20T04:58:57.758Z,98337.88
2018-12-20T05:01:26.207Z,98337.30
2018-12-20T05:03:54.500Z,98336.97
2018-12-20T05:06:23.361Z,98345.36
2018-12-20T05:08:51.811Z,98360.91
2018-12-20T05:11:20.315Z,98354.72
2018-12-20T05:13:49.193Z,98358.44
2018-12-20T05:16:17.566Z,98359.78
2018-12-20T05:18:45.960Z,98349.97
2018-12-20T05:21:14.490Z,98354.16
2018-12-20T05:23:42.961Z,98352.28
2018-12-20T05:26:11.525Z,98354.60
2018-12-20T05:28:39.804Z,98363.84
2018-12-20T05:31:08.826Z,98364.75
2018-12-20T05:33:37.840Z,98367.45
2018-12-20T05:36:07.074Z,98365.73
2018-12-20T05:38:35.471Z,98363.78
2018-12-20T05:41:03.882Z,98365.10
2018-12-20T05:43:32.764Z,98369.47
2018-12-20T05:46:04.658Z,98369.48
2018-12-20T05:48:32.513Z,98366.84
2018-12-20T05:51:01.303Z,98371.82
2018-12-20T05:53:30.346Z,98375.59
2018-12-20T05:55:58.994Z,98376.94
2018-12-20T05:58:27.569Z,98386.72
2018-12-20T06:00:55.980Z,98382.80
2018-12-20T06:03:24.373Z,98383.05
2018-12-20T06:05:52.634Z,98383.84
2018-12-20T06:08:21.253Z,98382.89
2018-12-20T06:10:49.677Z,98382.59
2018-12-20T06:13:18.107Z,98386.05
2018-12-20T06:15:47.180Z,98386.23
2018-12-20T06:18:15.858Z,98385.22
2018-12-20T06:20:44.274Z,98395.73
2018-12-20T06:23:12.970Z,98397.09
2018-12-20T06:25:41.661Z,98397.80
2018-12-20T06:28:09.931Z,98403.95
2018-12-20T06:30:38.300Z,98396.52
2018-12-20T06:33:06.524Z,98407.54
2018-12-20T06:35:35.113Z,98412.62
2018-12-20T06:38:03.342Z,98409.11
2018-12-20T06:40:31.564Z,98404.95
2018-12-20T06:43:01.006Z,98410.45
2018-12-20T06:45:29.267Z,98423.34
2018-12-20T06:47:58.083Z,98423.80
2018-12-20T06:50:26.412Z,98419.13
2018-12-20T06:52:54.674Z,98427.02
2018-12-20T06:55:24.471Z,98421.24
2018-12-20T06:57:54.805Z,98424.63
2018-12-20T07:00:23.977Z,98423.16
2018-12-20T07:02:53.106Z,98425.20
2018-12-20T07:05:21.420Z,98433.81
2018-12-20T07:07:49.930Z,98430.14
2018-12-20T07:10:18.545Z,98427.11
2018-12-20T07:12:47.973Z,98431.62
2018-12-20T07:15:17.473Z,98428.39
2018-12-20T07:17:45.683Z,98434.91
2018-12-20T07:20:14.051Z,98440.82
2018-12-20T07:22:42.655Z,98435.94
2018-12-20T07:25:10.921Z,98436.09
2018-12-20T07:27:39.471Z,98441.05
2018-12-20T07:30:09.912Z,98439.61
2018-12-20T07:32:39.778Z,98439.09
2018-12-20T07:35:08.145Z,98442.77
2018-12-20T07:37:36.699Z,98440.15
2018-12-20T07:40:07.629Z,98442.77
2018-12-20T07:42:36.408Z,98443.05
2018-12-20T07:45:06.878Z,98440.28
2018-12-20T07:47:35.196Z,98451.22
2018-12-20T07:50:06.195Z,98452.61
2018-12-20T07:52:34.409Z,98450.78
2018-12-20T07:55:03.333Z,98455.96
2018-12-20T07:57:31.663Z,98451.33
2018-12-20T08:00:00.248Z,98463.04
2018-12-20T08:02:29.482Z,98459.52
2018-12-20T08:04:57.991Z,98453.91
2018-12-20T08:07:26.309Z,98462.70
2018-12-20T08:09:54.705Z,98463.09
2018-12-20T08:12:23.341Z,98471.64
2018-12-20T08:14:52.225Z,98484.20
2018-12-20T08:17:20.808Z,98482.85
2018-12-20T08:19:50.512Z,98483.44
2018-12-20T08:22:19.364Z,98489.35
2018-12-20T08:24:47.613Z,98493.23
2018-12-20T08:29:56.521Z,98487.14
2018-12-20T08:32:24.901Z,98492.52
2018-12-20T08:34:53.810Z,98494.76
2018-12-20T08:37:22.142Z,98494.19
2018-12-20T08:39:50.774Z,98492.24
2018-12-20T08:42:19.123Z,98490.92
2018-12-20T08:44:48.269Z,98489.73
2018-12-20T08:47:16.605Z,98491.78
2018-12-20T08:49:45.549Z,98498.77
2018-12-20T08:52:13.840Z,98501.77
2018-12-20T08:54:42.085Z,98494.81
2018-12-20T08:57:10.812Z,98504.51
2018-12-20T08:59:40.276Z,98506.42
2018-12-20T09:02:09.027Z,98509.70
2018-12-20T09:04:37.704Z,98505.41
2018-12-20T09:07:06.536Z,98508.22
2018-12-20T09:09:35.429Z,98503.58
2018-12-20T09:12:04.667Z,98510.98
2018-12-20T09:14:33.214Z,98503.23
2018-12-20T09:17:03.083Z,98502.81
2018-12-20T09:19:31.715Z,98503.03
2018-12-20T09:22:02.155Z,98509.45
2018-12-20T09:24:33.381Z,98512.64
2018-12-20T09:27:10.652Z,98516.96
2018-12-20T09:29:49.629Z,98511.16
2018-12-20T09:32:25.870Z,98513.30
2018-12-20T09:34:57.868Z,98503.86
2018-12-20T09:37:31.348Z,98501.58
2018-12-20T09:40:02.507Z,98499.87
2018-12-20T09:42:38.114Z,98510.33
2018-12-20T09:45:10.219Z,98508.31
2018-12-20T09:47:45.541Z,98498.17
2018-12-20T09:50:16.859Z,98503.07
2018-12-20T09:52:48.075Z,98499.02
2018-12-20T09:55:19.777Z,98501.50
2018-12-20T09:57:50.784Z,98491.92
2018-12-20T10:00:22.518Z,98496.80
2018-12-20T10:02:53.335Z,98484.50
2018-12-20T10:05:23.969Z,98484.87
2018-12-20T10:07:55.888Z,98479.48
2018-12-20T10:10:26.813Z,98482.57
2018-12-20T10:12:57.870Z,98477.93
2018-12-20T10:15:30.127Z,98484.34
2018-12-20T10:18:01.399Z,98489.55
2018-12-20T10:20:32.531Z,98490.26
2018-12-20T10:23:04.207Z,98486.23
2018-12-20T10:25:35.430Z,98486.04
2018-12-20T10:28:07.251Z,98474.98
2018-12-20T10:30:37.851Z,98473.14
2018-12-20T10:33:09.861Z,98476.34
2018-12-20T10:35:41.028Z,98480.84
2018-12-20T10:38:12.687Z,98461.25
2018-12-20T10:40:43.415Z,98464.46
2018-12-20T10:43:14.599Z,98467.41
2018-12-20T10:45:45.901Z,98468.69
2018-12-20T10:48:18.777Z,98473.36
2018-12-20T10:50:50.434Z,98472.52
2018-12-20T10:53:22.581Z,98470.04
2018-12-20T10:55:53.727Z,98469.84
2018-12-20T10:58:25.352Z,98476.09
2018-12-20T11:01:01.302Z,98481.48
2018-12-20T11:03:37.809Z,98480.92
2018-12-20T11:06:14.173Z,98464.08
2018-12-20T11:08:50.312Z,98465.47
2018-12-20T11:11:21.667Z,98460.52
2018-12-20T11:13:53.252Z,98472.71
2018-12-20T11:16:24.405Z,98468.11
2018-12-20T11:18:56.324Z,98469.58
2018-12-20T11:21:27.306Z,98467.20
2018-12-20T11:23:59.032Z,98470.14
2018-12-20T11:26:30.444Z,98459.52
2018-12-20T11:29:02.340Z,98465.66
2018-12-20T11:31:34.375Z,98457.33
2018-12-20T11:34:05.649Z,98456.03
2018-12-20T11:36:37.968Z,98461.25
2018-12-20T11:39:09.189Z,98457.11
2018-12-20T11:41:41.018Z,98437.17
2018-12-20T11:44:12.519Z,98432.75
2018-12-20T11:46:43.970Z,98431.40
2018-12-20T11:49:17.016Z,98428.39
2018-12-20T11:51:48.788Z,98431.86
2018-12-20T11:54:21.955Z,98426.28
2018-12-20T11:56:56.381Z,98415.46
2018-12-20T11:59:27.212Z,98417.57
2018-12-20T12:01:58.012Z,98413.43
2018-12-20T12:04:30.735Z,98410.03
2018-12-20T12:07:01.545Z,98416.83
2018-12-20T12:09:33.391Z,98414.63
2018-12-20T12:12:05.190Z,98415.16
2018-12-20T12:14:36.596Z,98425.34
2018-12-20T12:17:08.567Z,98410.97
2018-12-20T12:19:39.066Z,98414.32
2018-12-20T12:22:10.700Z,98416.88
2018-12-20T12:24:43.239Z,98415.78
2018-12-20T12:27:14.919Z,98416.62
2018-12-20T12:30:02.269Z,98422.02
2018-12-20T12:32:49.924Z,98430.55
2018-12-20T12:35:31.022Z,98425.41
2018-12-20T12:38:11.498Z,98425.92
2018-12-20T12:40:40.279Z,98431.04
2018-12-20T12:43:08.797Z,98432.91
2018-12-20T12:45:38.306Z,98433.10
2018-12-20T12:48:06.652Z,98432.00
2018-12-20T12:50:35.285Z,98438.22
2018-12-20T12:53:03.598Z,98434.56
2018-12-20T12:55:32.026Z,98438.03
2018-12-20T12:58:04.644Z,98436.36
2018-12-20T13:00:31.140Z,98436.53
2018-12-20T13:03:00.032Z,98441.78
2018-12-20T13:05:28.933Z,98443.28
2018-12-20T13:07:57.237Z,98439.09
2018-12-20T13:10:25.785Z,98434.97
2018-12-20T13:12:54.181Z,98437.80
2018-12-20T13:15:23.969Z,98433.88
2018-12-20T13:17:53.381Z,98432.23
2018-12-20T13:20:22.536Z,98440.98
2018-12-20T13:22:51.191Z,98436.26
2018-12-20T13:28:35.612Z,98432.63
2018-12-20T13:31:04.069Z,98436.31
2018-12-20T13:33:32.623Z,98437.17
2018-12-20T13:38:40.957Z,98442.16
2018-12-20T13:41:10.032Z,98439.80
2018-12-20T13:43:38.435Z,98444.95
2018-12-20T13:46:07.547Z,98448.91
2018-12-20T13:48:36.104Z,98451.52
2018-12-20T13:51:05.616Z,98457.52
2018-12-20T13:53:33.928Z,98459.95
2018-12-20T13:56:02.640Z,98467.16
2018-12-20T13:58:31.169Z,98458.84
2018-12-20T14:01:00.016Z,98456.84
2018-12-20T14:03:28.232Z,98458.33
2018-12-20T14:05:56.763Z,98462.75
2018-12-20T14:08:25.453Z,98454.31
2018-12-20T14:10:53.741Z,98458.00
2018-12-20T14:13:22.062Z,98460.33
2018-12-20T14:15:50.645Z,98467.94
2018-12-20T14:18:19.894Z,98467.53
2018-12-20T14:20:48.687Z,98471.43
2018-12-20T14:23:17.218Z,98474.84
2018-12-20T14:25:45.733Z,98478.02
2018-12-20T14:28:14.483Z,98476.33
2018-12-20T14:30:42.763Z,98484.25
2018-12-20T14:33:11.089Z,98477.79
2018-12-20T14:35:39.738Z,98488.74
2018-12-20T14:38:08.023Z,98488.88
2018-12-20T14:40:37.029Z,98483.64
2018-12-20T14:43:05.297Z,98489.70
2018-12-20T14:45:34.480Z,98490.91
2018-12-20T14:48:09.574Z,98497.52
2018-12-20T14:50:38.221Z,98497.63
2018-12-20T14:53:06.824Z,98499.15
2018-12-20T14:55:35.485Z,98502.90
2018-12-20T14:58:04.232Z,98500.88
2018-12-20T15:00:32.457Z,98497.15
2018-12-20T15:03:01.872Z,98500.27
2018-12-20T15:05:30.108Z,98491.33
2018-12-20T15:07:59.095Z,98491.41
2018-12-20T15:10:27.361Z,98496.11
2018-12-20T15:12:55.663Z,98492.77
2018-12-20T15:15:24.208Z,98488.00
2018-12-20T15:20:40.251Z,98495.87
2018-12-20T15:23:03.789Z,98499.25
2018-12-20T15:25:32.149Z,98500.98
2018-12-20T15:28:00.609Z,98497.77
2018-12-20T15:30:29.074Z,98504.17
2018-12-20T15:32:58.133Z,98506.53
2018-12-20T15:35:26.685Z,98507.31
2018-12-20T15:37:55.151Z,98509.38
2018-12-20T15:40:23.384Z,98510.18
2018-12-20T15:42:51.851Z,98512.98
2018-12-20T15:45:20.128Z,98510.13
2018-12-20T15:47:48.414Z,98510.88
2018-12-20T15:50:16.864Z,98513.27
2018-12-20T15:52:46.633Z,98504.27
2018-12-20T15:55:15.278Z,98511.05
2018-12-20T15:57:44.577Z,98504.93
2018-12-20T16:00:12.860Z,98508.22
2018-12-20T16:02:41.803Z,98511.78
2018-12-20T16:05:10.476Z,98512.56
2018-12-20T16:07:38.816Z,98518.92
2018-12-20T16:10:09.301Z,98528.23
2018-12-20T16:15:18.460Z,98537.98
2018-12-20T16:17:47.118Z,98537.19
2018-12-20T16:20:15.651Z,98539.26
2018-12-20T16:22:44.037Z,98549.27
2018-12-20T16:25:12.764Z,98546.70
2018-12-20T16:27:41.089Z,98548.44
2018-12-20T16:30:11.133Z,98555.72
2018-12-20T16:32:39.703Z,98555.88
2018-12-20T16:35:08.535Z,98554.22
2018-12-20T16:37:37.218Z,98559.22
2018-12-20T16:40:06.551Z,98556.27
2018-12-20T16:42:38.173Z,98560.17
2018-12-20T16:45:07.508Z,98559.62
2018-12-20T16:47:35.905Z,98549.66
2018-12-20T16:50:07.091Z,98556.95
2018-12-20T16:52:35.996Z,98554.11
2018-12-20T16:55:05.708Z,98567.73
2018-12-20T16:57:34.769Z,98565.67
2018-12-20T17:00:03.662Z,98570.50
2018-12-20T17:02:35.066Z,98570.05
2018-12-20T17:05:03.639Z,98568.55
2018-12-20T17:07:31.944Z,98571.43
2018-12-20T17:10:00.757Z,98571.81
2018-12-20T17:12:28.998Z,98576.39
2018-12-20T17:14:57.537Z,98577.70
2018-12-20T17:17:25.800Z,98583.05
2018-12-20T17:19:54.235Z,98581.61
2018-12-20T17:22:22.796Z,98586.73
2018-12-20T17:24:51.540Z,98584.48
2018-12-20T17:27:19.971Z,98593.61
2018-12-20T17:29:49.346Z,98589.67
2018-12-20T17:32:17.673Z,98593.33
2018-12-20T17:34:47.070Z,98602.84
2018-12-20T17:37:15.600Z,98600.52
2018-12-20T17:39:44.166Z,98598.67
2018-12-20T17:42:14.019Z,98598.67
2018-12-20T17:44:42.355Z,98602.12
2018-12-20T17:47:11.030Z,98602.84
2018-12-20T17:49:39.325Z,98594.61
2018-12-20T17:52:07.781Z,98604.70
2018-12-20T17:54:36.173Z,98606.52
2018-12-20T17:57:05.563Z,98615.80
2018-12-20T17:59:33.842Z,98613.66
2018-12-20T18:02:02.534Z,98619.50
2018-12-20T18:04:31.592Z,98624.17
2018-12-20T18:07:00.404Z,98626.02
2018-12-20T18:09:28.774Z,98630.13
2018-12-20T18:11:58.177Z,98627.18
2018-12-20T18:14:26.873Z,98630.41
2018-12-20T18:16:55.505Z,98625.95
2018-12-20T18:19:23.980Z,98635.52
2018-12-20T18:21:54.381Z,98634.87
2018-12-20T18:24:22.725Z,98638.70
2018-12-20T18:26:51.175Z,98644.33
2018-12-20T18:29:19.923Z,98638.19
2018-12-20T18:31:49.039Z,98643.77
2018-12-20T18:34:18.078Z,98636.80
2018-12-20T18:36:46.738Z,98642.25
2018-12-20T18:39:15.663Z,98635.30
2018-12-20T18:41:44.239Z,98633.12
2018-12-20T18:44:14.221Z,98637.26
2018-12-20T18:46:43.226Z,98631.95
2018-12-20T18:49:12.156Z,98645.48
2018-12-20T18:51:40.640Z,98648.37
2018-12-20T18:54:08.962Z,98650.67
2018-12-20T18:56:38.191Z,98643.25
2018-12-20T18:59:07.977Z,98649.88
2018-12-20T19:01:36.909Z,98648.66
2018-12-20T19:04:05.273Z,98656.88
2018-12-20T19:06:34.086Z,98648.88
2018-12-20T19:09:02.498Z,98644.66
2018-12-20T19:11:32.251Z,98641.09
2018-12-20T19:14:01.227Z,98641.55
2018-12-20T19:16:29.688Z,98648.88
2018-12-20T19:18:57.878Z,98645.44
2018-12-20T19:21:26.243Z,98652.17
2018-12-20T19:23:56.087Z,98655.28
2018-12-20T19:26:24.375Z,98656.72
2018-12-20T19:28:53.564Z,98662.83
2018-12-20T19:31:22.219Z,98659.73
2018-12-20T19:33:52.183Z,98656.50
2018-12-20T19:36:22.421Z,98653.49
2018-12-20T19:38:50.734Z,98659.22
2018-12-20T19:41:20.804Z,98663.41
2018-12-20T19:43:49.284Z,98668.59
2018-12-20T19:46:18.285Z,98670.70
2018-12-20T19:48:46.546Z,98668.81
2018-12-20T19:51:14.841Z,98669.87
2018-12-20T19:53:43.170Z,98673.13
2018-12-20T19:56:11.563Z,98664.75
2018-12-20T19:58:40.082Z,98669.03
2018-12-20T20:01:08.559Z,98667.47
2018-12-20T20:03:36.808Z,98665.03
2018-12-20T20:06:05.447Z,98666.09
2018-12-20T20:08:34.489Z,98660.45
2018-12-20T20:11:03.685Z,98659.41
2018-12-20T20:13:32.288Z,98655.73
2018-12-20T20:16:01.234Z,98662.90
2018-12-20T20:18:30.464Z,98666.52
2018-12-20T20:20:59.706Z,98670.48
2018-12-20T20:23:28.542Z,98667.22
2018-12-20T20:25:57.040Z,98669.01
2018-12-20T20:28:26.479Z,98659.98
2018-12-20T20:30:55.120Z,98660.88
2018-12-20T20:33:24.223Z,98650.03
2018-12-20T20:35:52.724Z,98656.15
2018-12-20T20:38:21.192Z,98660.05
2018-12-20T20:40:49.497Z,98663.00
2018-12-20T20:43:19.094Z,98660.27
2018-12-20T20:45:48.367Z,98657.94
2018-12-20T20:48:17.782Z,98660.34
2018-12-20T20:50:46.117Z,98662.70
2018-12-20T20:53:14.544Z,98661.49
2018-12-20T20:55:49.891Z,98657.08
2018-12-20T20:58:19.605Z,98660.23
2018-12-20T21:00:50.782Z,98659.05
2018-12-20T21:03:19.380Z,98660.15
2018-12-20T21:05:48.493Z,98667.22
2018-12-20T21:08:17.669Z,98667.44
2018-12-20T21:10:45.950Z,98668.14
2018-12-20T21:13:14.307Z,98669.42
2018-12-20T21:15:43.314Z,98666.86
2018-12-20T21:18:13.078Z,98666.03
2018-12-20T21:20:42.397Z,98665.58
2018-12-20T21:23:10.923Z,98667.01
2018-12-20T21:25:39.729Z,98671.17
2018-12-20T21:28:08.027Z,98665.52
2018-12-20T21:30:36.368Z,98669.45
2018-12-20T21:33:05.893Z,98671.98
2018-12-20T21:35:34.285Z,98679.06
2018-12-20T21:38:03.197Z,98680.44
2018-12-20T21:40:32.013Z,98679.52
2018-12-20T21:43:00.500Z,98679.61
2018-12-20T21:45:29.358Z,98676.13
2018-12-20T21:47:57.765Z,98673.20
2018-12-20T21:50:26.929Z,98672.36
2018-12-20T21:52:56.090Z,98671.02
2018-12-20T21:55:24.699Z,98669.20
2018-12-20T21:57:53.025Z,98675.07
2018-12-20T22:00:21.331Z,98668.84
2018-12-20T22:02:49.672Z,98670.80
2018-12-20T22:05:17.956Z,98670.34
2018-12-20T22:07:46.736Z,98674.11
2018-12-20T22:10:15.525Z,98678.16
2018-12-20T22:12:44.928Z,98669.31
2018-12-20T22:15:13.571Z,98678.54
2018-12-20T22:17:42.129Z,98677.56
2018-12-20T22:20:10.717Z,98676.44
2018-12-20T22:22:39.178Z,98675.55
2018-12-20T22:25:07.826Z,98672.30
2018-12-20T22:27:36.191Z,98670.73
2018-12-20T22:30:06.409Z,98673.04
2018-12-20T22:32:34.644Z,98668.31
2018-12-20T22:35:03.073Z,98670.28
2018-12-20T22:37:31.716Z,98670.50
2018-12-20T22:40:00.071Z,98669.22
2018-12-20T22:42:28.458Z,98657.85
2018-12-20T22:44:57.564Z,98658.33
2018-12-20T22:47:26.249Z,98652.73
2018-12-20T22:49:54.782Z,98649.67
2018-12-20T22:52:24.260Z,98658.91
2018-12-20T22:54:52.554Z,98656.50
2018-12-20T22:57:21.114Z,98659.90
2018-12-20T22:59:49.617Z,98651.91
2018-12-20T23:02:18.448Z,98643.43
2018-12-20T23:04:47.092Z,98647.19
2018-12-20T23:07:16.020Z,98644.83
2018-12-20T23:09:44.461Z,98644.91
2018-12-20T23:12:13.456Z,98652.73
2018-12-20T23:14:41.956Z,98659.52
2018-12-20T23:17:10.566Z,98659.05
2018-12-20T23:19:39.021Z,98662.07
2018-12-20T23:24:48.298Z,98669.59
2018-12-20T23:27:17.048Z,98656.04
2018-12-20T23:29:45.665Z,98651.53
2018-12-20T23:32:14.847Z,98656.13
2018-12-20T23:34:43.368Z,98656.42
2018-12-20T23:37:12.005Z,98650.18
2018-12-20T23:39:40.585Z,98645.98
2018-12-20T23:42:09.343Z,98643.94
2018-12-20T23:44:38.180Z,98641.22
2018-12-20T23:47:06.517Z,98638.58
2018-12-20T23:49:36.217Z,98632.88
2018-12-20T23:52:05.260Z,98634.98
2018-12-20T23:54:33.845Z,98643.56
2018-12-20T23:57:02.157Z,98643.19
2018-12-20T23:59:31.019Z,98637.39
